SEJ249 VIAR-VISR
Flight info
| Callsign | SEJ249 |
|---|---|
| Flight time | N/A |
| Altitude | 35000 |
| Route | RABAN DCT SULOM DCT ANPOL DCT KIKED DCT PK/N0461F340 DCT ATNUS DCT MESAR |
| Aircraft | B737/M-SDE2E3FGHIRWXY/LB1 |
Departure
| Time | N/A |
|---|---|
| Airport | Sri Guru Ram Das Ji International Airport (VIAR) |
Arrival
| Time | 2026-04-15 16:23 |
|---|---|
| Airport | Sheikh ul Alam International Airport (VISR) |
| Time | Latitude | Longitude | Altitude | Speed | Heading |
|---|---|---|---|---|---|
| 2026-04-15 15:54 | 31.74905 | 75.46970 | 34762 ft | 463 kts | 8° |
| 2026-04-15 15:55 | 31.81069 | 75.49039 | 34777 ft | 467 kts | 8° |
| 2026-04-15 15:55 | 31.87311 | 75.51117 | 34777 ft | 466 kts | 8° |
| 2026-04-15 15:56 | 31.93551 | 75.53176 | 34776 ft | 468 kts | 8° |
| 2026-04-15 15:56 | 31.99743 | 75.55244 | 34777 ft | 465 kts | 8° |
| 2026-04-15 15:57 | 32.05964 | 75.57323 | 34776 ft | 466 kts | 8° |
| 2026-04-15 15:57 | 32.12192 | 75.59382 | 34776 ft | 466 kts | 7° |
| 2026-04-15 15:58 | 32.18402 | 75.61400 | 34777 ft | 463 kts | 7° |
| 2026-04-15 15:58 | 32.24604 | 75.62595 | 34776 ft | 448 kts | 351° |
| 2026-04-15 15:59 | 32.27654 | 75.62139 | 34779 ft | 436 kts | 339° |
| 2026-04-15 15:59 | 32.30570 | 75.61182 | 34777 ft | 434 kts | 336° |
| 2026-04-15 15:59 | 32.36373 | 75.59327 | 34776 ft | 435 kts | 338° |
| 2026-04-15 16:00 | 32.42212 | 75.57542 | 34777 ft | 436 kts | 338° |
| 2026-04-15 16:00 | 32.48013 | 75.55677 | 34777 ft | 433 kts | 337° |
| 2026-04-15 16:01 | 32.53838 | 75.53805 | 34728 ft | 434 kts | 337° |
| 2026-04-15 16:01 | 32.56725 | 75.52875 | 34095 ft | 433 kts | 338° |
| 2026-04-15 16:01 | 32.59634 | 75.51942 | 33316 ft | 435 kts | 338° |
| 2026-04-15 16:02 | 32.62499 | 75.51023 | 32510 ft | 436 kts | 338° |
| 2026-04-15 16:02 | 32.65459 | 75.50074 | 31647 ft | 439 kts | 338° |
| 2026-04-15 16:02 | 32.68370 | 75.49139 | 30771 ft | 441 kts | 339° |
| 2026-04-15 16:02 | 32.71313 | 75.48194 | 29861 ft | 444 kts | 339° |
| 2026-04-15 16:03 | 32.74299 | 75.47232 | 28906 ft | 447 kts | 339° |
| 2026-04-15 16:03 | 32.77273 | 75.46284 | 27922 ft | 450 kts | 340° |
| 2026-04-15 16:03 | 32.80299 | 75.45332 | 27086 ft | 448 kts | 340° |
| 2026-04-15 16:03 | 32.83268 | 75.44411 | 26399 ft | 444 kts | 341° |
| 2026-04-15 16:04 | 32.86258 | 75.43490 | 25679 ft | 440 kts | 341° |
| 2026-04-15 16:04 | 32.89159 | 75.42596 | 24969 ft | 437 kts | 341° |
| 2026-04-15 16:04 | 32.92096 | 75.41682 | 24245 ft | 434 kts | 341° |
| 2026-04-15 16:04 | 32.94984 | 75.40771 | 23530 ft | 430 kts | 341° |
| 2026-04-15 16:05 | 32.97826 | 75.39861 | 22855 ft | 426 kts | 342° |
| 2026-04-15 16:05 | 33.00664 | 75.38951 | 22378 ft | 416 kts | 343° |
| 2026-04-15 16:05 | 33.03410 | 75.38078 | 22085 ft | 403 kts | 344° |
| 2026-04-15 16:05 | 33.06063 | 75.37240 | 21925 ft | 389 kts | 345° |
| 2026-04-15 16:06 | 33.08665 | 75.36415 | 21752 ft | 396 kts | 345° |
| 2026-04-15 16:06 | 33.11353 | 75.35558 | 21553 ft | 402 kts | 346° |
| 2026-04-15 16:06 | 33.14006 | 75.34711 | 21363 ft | 390 kts | 346° |
| 2026-04-15 16:06 | 33.16651 | 75.33866 | 21186 ft | 400 kts | 346° |
| 2026-04-15 16:07 | 33.19331 | 75.33014 | 20986 ft | 398 kts | 346° |
| 2026-04-15 16:07 | 33.21942 | 75.32182 | 20780 ft | 389 kts | 346° |
| 2026-04-15 16:07 | 33.27277 | 75.30474 | 19580 ft | 399 kts | 346° |
| 2026-04-15 16:08 | 33.29914 | 75.29631 | 19209 ft | 390 kts | 346° |
| 2026-04-15 16:08 | 33.32499 | 75.28806 | 19023 ft | 375 kts | 347° |
| 2026-04-15 16:08 | 33.34956 | 75.28021 | 18851 ft | 362 kts | 347° |
| 2026-04-15 16:08 | 33.37354 | 75.27254 | 18673 ft | 346 kts | 347° |
| 2026-04-15 16:09 | 33.39566 | 75.26544 | 18516 ft | 320 kts | 347° |
| 2026-04-15 16:09 | 33.41657 | 75.25874 | 18365 ft | 297 kts | 347° |
| 2026-04-15 16:09 | 33.43574 | 75.25261 | 18226 ft | 276 kts | 347° |
| 2026-04-15 16:09 | 33.45347 | 75.24693 | 18100 ft | 259 kts | 347° |
| 2026-04-15 16:10 | 33.47053 | 75.24147 | 17988 ft | 248 kts | 347° |
| 2026-04-15 16:10 | 33.48728 | 75.23601 | 17881 ft | 253 kts | 346° |
| 2026-04-15 16:10 | 33.50384 | 75.22835 | 17667 ft | 260 kts | 336° |
| 2026-04-15 16:10 | 33.51949 | 75.21727 | 17194 ft | 266 kts | 330° |
| 2026-04-15 16:11 | 33.53515 | 75.20564 | 16742 ft | 263 kts | 332° |
| 2026-04-15 16:11 | 33.55057 | 75.19449 | 16311 ft | 257 kts | 331° |
| 2026-04-15 16:11 | 33.56588 | 75.18327 | 15881 ft | 260 kts | 331° |
| 2026-04-15 16:11 | 33.58129 | 75.17193 | 15447 ft | 263 kts | 331° |
| 2026-04-15 16:12 | 33.59688 | 75.16045 | 15008 ft | 267 kts | 330° |
| 2026-04-15 16:12 | 33.61276 | 75.14874 | 14563 ft | 270 kts | 330° |
| 2026-04-15 16:12 | 33.62877 | 75.13693 | 14114 ft | 268 kts | 330° |
| 2026-04-15 16:12 | 33.64441 | 75.12537 | 13681 ft | 262 kts | 330° |
| 2026-04-15 16:13 | 33.65954 | 75.11420 | 13262 ft | 256 kts | 330° |
| 2026-04-15 16:13 | 33.67452 | 75.10313 | 12847 ft | 250 kts | 330° |
| 2026-04-15 16:13 | 33.68906 | 75.09238 | 12444 ft | 245 kts | 330° |
| 2026-04-15 16:13 | 33.70344 | 75.08176 | 12046 ft | 241 kts | 329° |
| 2026-04-15 16:14 | 33.71757 | 75.07130 | 11655 ft | 240 kts | 329° |
| 2026-04-15 16:14 | 33.73189 | 75.06072 | 11257 ft | 239 kts | 329° |
| 2026-04-15 16:14 | 33.74593 | 75.05067 | 10865 ft | 237 kts | 329° |
| 2026-04-15 16:14 | 33.75852 | 75.03841 | 10464 ft | 233 kts | 314° |
| 2026-04-15 16:15 | 33.76959 | 75.02450 | 10142 ft | 225 kts | 316° |
| 2026-04-15 16:15 | 33.78034 | 75.01174 | 9945 ft | 212 kts | 316° |
| 2026-04-15 16:15 | 33.79068 | 74.99947 | 9759 ft | 204 kts | 316° |
| 2026-04-15 16:15 | 33.80064 | 74.98771 | 9566 ft | 199 kts | 316° |
| 2026-04-15 16:16 | 33.81051 | 74.97649 | 9363 ft | 196 kts | 321° |
| 2026-04-15 16:16 | 33.82066 | 74.96628 | 9188 ft | 179 kts | 319° |
| 2026-04-15 16:16 | 33.82890 | 74.95685 | 8986 ft | 169 kts | 317° |
| 2026-04-15 16:16 | 33.83698 | 74.94692 | 8797 ft | 162 kts | 315° |
| 2026-04-15 16:17 | 33.84484 | 74.93740 | 8595 ft | 158 kts | 316° |
| 2026-04-15 16:17 | 33.85240 | 74.92835 | 8372 ft | 149 kts | 317° |
| 2026-04-15 16:17 | 33.85981 | 74.91976 | 8178 ft | 148 kts | 317° |
| 2026-04-15 16:17 | 33.86716 | 74.91132 | 7978 ft | 147 kts | 317° |
| 2026-04-15 16:18 | 33.87447 | 74.90293 | 7960 ft | 144 kts | 317° |
| 2026-04-15 16:18 | 33.88180 | 74.89454 | 7937 ft | 147 kts | 317° |
| 2026-04-15 16:18 | 33.88931 | 74.88593 | 7771 ft | 148 kts | 317° |
| 2026-04-15 16:18 | 33.89665 | 74.87752 | 7592 ft | 145 kts | 317° |
| 2026-04-15 16:19 | 33.90391 | 74.86919 | 7405 ft | 146 kts | 317° |
| 2026-04-15 16:19 | 33.91120 | 74.86083 | 7202 ft | 143 kts | 317° |
| 2026-04-15 16:19 | 33.91839 | 74.85259 | 7012 ft | 141 kts | 317° |
| 2026-04-15 16:19 | 33.92545 | 74.84448 | 6821 ft | 140 kts | 317° |
| 2026-04-15 16:20 | 33.93247 | 74.83643 | 6634 ft | 139 kts | 317° |
| 2026-04-15 16:20 | 33.93938 | 74.82849 | 6448 ft | 138 kts | 317° |
| 2026-04-15 16:20 | 33.94632 | 74.82052 | 6261 ft | 138 kts | 317° |
| 2026-04-15 16:20 | 33.95324 | 74.81256 | 6076 ft | 138 kts | 317° |
| 2026-04-15 16:21 | 33.96017 | 74.80460 | 5890 ft | 137 kts | 317° |
| 2026-04-15 16:21 | 33.96717 | 74.79668 | 5685 ft | 139 kts | 318° |
| 2026-04-15 16:21 | 33.97429 | 74.78877 | 5488 ft | 140 kts | 317° |
| 2026-04-15 16:21 | 33.98109 | 74.78091 | 5438 ft | 124 kts | 316° |
| 2026-04-15 16:22 | 33.98592 | 74.77529 | 5438 ft | 67 kts | 315° |
| 2026-04-15 16:22 | 33.98911 | 74.77157 | 5438 ft | 64 kts | 316° |
| 2026-04-15 16:22 | 33.99229 | 74.76788 | 5438 ft | 62 kts | 317° |
| 2026-04-15 16:22 | 33.99524 | 74.76444 | 5438 ft | 55 kts | 315° |
| 2026-04-15 16:23 | 33.99759 | 74.76170 | 5438 ft | 25 kts | 317° |
| 2026-04-15 16:23 | 33.99868 | 74.76151 | 5438 ft | 15 kts | 18° |